Time;durP1;ratioP1;P1;durP2;ratioP2;P2;SDS_P1;SDS_P2;PMS_P1;PMS_P2;Temp;Humidity;BMP_temperature;BMP_pressure;BME280_temperature;BME280_humidity;BME280_pressure;Samples;Min_cycle;Max_cycle;Signal;HPM_P1;HPM_P2
2022/12/15 00:41:03;;;;;;;;;;;-7.30;99.90;;;;;;5021545;28;20438;-58
2022/12/15 00:43:30;;;;;;;;;;;-7.20;99.90;;;;;;5029677;28;19913;-56
2022/12/15 00:48:39;;;;;;;;;;;-7.20;99.90;;;;;;5030067;28;20413;-57
2022/12/15 00:51:05;;;;;;;;;;;-7.20;99.90;;;;;;5023233;28;19913;-57
2022/12/15 01:21:01;;;;;;;;;;;-6.90;99.90;;;;;;5030295;28;19936;-58
2022/12/15 01:23:26;;;;;;;;;;;-6.90;99.90;;;;;;5030441;28;19920;-57
2022/12/15 01:25:52;;;;;;;;;;;-6.90;99.90;;;;;;5025661;28;20008;-57
2022/12/15 01:28:18;;;;;;;;;;;-6.90;99.90;;;;;;5029695;28;19913;-57
2022/12/15 01:30:44;;;;;;;;;;;-6.90;99.90;;;;;;5005757;28;19924;-58
2022/12/15 01:33:11;;;;;;;;;;;-6.90;99.90;;;;;;5029877;28;19925;-58
2022/12/15 01:35:36;;;;;;;;;;;-6.80;99.90;;;;;;5005693;28;19944;-57
2022/12/15 01:38:02;;;;;;;;;;;-6.80;99.90;;;;;;4994358;28;19968;-57
2022/12/15 01:40:45;;;;;;;;;;;-6.90;99.90;;;;;;5029381;28;19986;-57
2022/12/15 01:43:15;;;;;;;;;;;-6.90;99.90;;;;;;5021110;28;19913;-57
2022/12/15 01:45:46;;;;;;;;;;;-6.90;99.90;;;;;;5028950;28;19924;-53
2022/12/15 01:48:12;;;;;;;;;;;-6.90;99.90;;;;;;5028100;28;20015;-56
2022/12/15 01:50:44;;;;;;;;;;;-6.90;99.90;;;;;;5016256;28;19947;-56
2022/12/15 01:53:10;;;;;;;;;;;-6.80;99.90;;;;;;5025156;28;19909;-56
2022/12/15 01:55:37;;;;;;;;;;;-6.90;99.90;;;;;;5021400;28;20054;-54
2022/12/15 01:58:05;;;;;;;;;;;-6.90;99.90;;;;;;5018050;28;19909;-58
2022/12/15 02:00:31;;;;;;;;;;;-6.90;99.90;;;;;;5026635;28;19917;-56
2022/12/15 02:02:57;;;;;;;;;;;-6.90;99.90;;;;;;5018049;28;19925;-54
2022/12/15 02:05:23;;;;;;;;;;;-6.90;99.90;;;;;;5025039;28;20330;-53
2022/12/15 02:07:49;;;;;;;;;;;-6.90;99.90;;;;;;5027590;28;19916;-56
2022/12/15 02:10:14;;;;;;;;;;;-6.90;99.90;;;;;;5014779;28;20291;-55
2022/12/15 02:12:43;;;;;;;;;;;-6.90;99.90;;;;;;5027379;28;19916;-54
2022/12/15 02:15:21;;;;;;;;;;;-6.90;99.90;;;;;;5028051;28;19913;-56
2022/12/15 02:18:00;;;;;;;;;;;-7.00;99.90;;;;;;5026595;28;20049;-58
2022/12/15 02:20:26;;;;;;;;;;;-7.00;99.90;;;;;;5023547;28;19917;-56
2022/12/15 02:23:10;;;;;;;;;;;-7.00;99.90;;;;;;5021626;28;20440;-55
2022/12/15 02:25:37;;;;;;;;;;;-7.00;99.90;;;;;;5023672;28;19925;-56
2022/12/15 02:28:07;;;;;;;;;;;-7.00;99.90;;;;;;5028813;28;20535;-55
2022/12/15 02:30:35;;;;;;;;;;;-7.00;99.90;;;;;;5026771;28;19960;-56
2022/12/15 02:33:20;;;;;;;;;;;-7.00;99.90;;;;;;5009748;28;19913;-55
2022/12/15 02:35:52;;;;;;;;;;;-7.00;99.90;;;;;;5018812;28;20387;-56
2022/12/15 02:38:28;;;;;;;;;;;-7.00;99.90;;;;;;5007117;28;19916;-57
2022/12/15 02:40:58;;;;;;;;;;;-6.90;99.90;;;;;;5021036;28;19924;-56
2022/12/15 02:43:23;;;;;;;;;;;-6.90;99.90;;;;;;5026491;28;20390;-56
2022/12/15 02:45:53;;;;;;;;;;;-6.90;99.90;;;;;;5027995;28;20083;-57
2022/12/15 02:48:39;;;;;;;;;;;-6.90;99.90;;;;;;5028714;28;20338;-57
2022/12/15 02:51:19;;;;;;;;;;;-6.90;99.90;;;;;;5020596;28;19917;-56
2022/12/15 02:53:56;;;;;;;;;;;-6.90;99.90;;;;;;5024146;28;20574;-57
2022/12/15 02:56:25;;;;;;;;;;;-6.90;99.90;;;;;;5024544;28;19913;-57
2022/12/15 02:58:56;;;;;;;;;;;-7.00;99.90;;;;;;5021411;28;19913;-57
2022/12/15 03:01:30;;;;;;;;;;;-7.00;99.90;;;;;;5051918;23;20322;-54
2022/12/15 03:03:57;;;;;;;;;;;-7.00;99.90;;;;;;5061891;28;20393;-57
2022/12/15 03:06:24;;;;;;;;;;;-7.00;99.90;;;;;;5052691;28;19912;-57
2022/12/15 03:08:49;;;;;;;;;;;-7.10;99.90;;;;;;5074431;28;20397;-56
2022/12/15 03:11:14;;;;;;;;;;;-7.10;99.90;;;;;;5063683;28;19921;-54
2022/12/15 03:13:40;;;;;;;;;;;-7.10;99.90;;;;;;5059611;28;20389;-57
2022/12/15 03:16:05;;;;;;;;;;;-7.10;99.90;;;;;;5057155;28;19912;-57
2022/12/15 03:18:31;;;;;;;;;;;-7.10;99.90;;;;;;5057512;28;19920;-57
2022/12/15 03:20:56;;;;;;;;;;;-7.10;99.90;;;;;;5060930;28;19913;-55
2022/12/15 03:23:22;;;;;;;;;;;-7.10;99.90;;;;;;5058671;28;20245;-54
2022/12/15 03:25:47;;;;;;;;;;;-7.10;99.90;;;;;;5059628;28;20287;-57
2022/12/15 03:28:13;;;;;;;;;;;-7.20;99.90;;;;;;5060546;28;19987;-57
2022/12/15 03:30:38;;;;;;;;;;;-7.20;99.90;;;;;;5060244;28;19912;-56
2022/12/15 03:33:04;;;;;;;;;;;-7.20;99.90;;;;;;5064513;28;19908;-56
2022/12/15 03:35:29;;;;;;;;;;;-7.20;99.90;;;;;;5060696;28;19978;-57
2022/12/15 03:37:55;;;;;;;;;;;-7.20;99.90;;;;;;5063122;28;19915;-57
2022/12/15 03:40:20;;;;;;;;;;;-7.20;99.90;;;;;;5058840;28;19944;-56
2022/12/15 03:42:49;;;;;;;;;;;-7.20;99.90;;;;;;5063038;28;20375;-53
2022/12/15 03:45:14;;;;;;;;;;;-7.30;99.90;;;;;;5063353;28;19916;-56
2022/12/15 03:47:40;;;;;;;;;;;-7.30;99.90;;;;;;5065696;28;19913;-54
2022/12/15 03:50:06;;;;;;;;;;;-7.30;99.90;;;;;;5062309;28;20393;-55
2022/12/15 03:52:32;;;;;;;;;;;-7.30;99.90;;;;;;5060326;28;20011;-57
2022/12/15 03:54:57;;;;;;;;;;;-7.30;99.90;;;;;;5064353;28;19995;-54
2022/12/15 03:57:23;;;;;;;;;;;-7.30;99.90;;;;;;5060494;28;20031;-52
2022/12/15 03:59:48;;;;;;;;;;;-7.30;99.90;;;;;;5063039;28;19920;-57
2022/12/15 04:02:14;;;;;;;;;;;-7.30;99.90;;;;;;5059168;28;20276;-57
2022/12/15 04:04:39;;;;;;;;;;;-7.30;99.90;;;;;;5056391;28;20183;-55
2022/12/15 04:07:04;;;;;;;;;;;-7.30;99.90;;;;;;5059470;28;19931;-57
2022/12/15 04:09:30;;;;;;;;;;;-7.40;99.90;;;;;;5058018;28;19916;-55
2022/12/15 04:11:55;;;;;;;;;;;-7.30;99.90;;;;;;5063085;28;19915;-52
2022/12/15 04:14:21;;;;;;;;;;;-7.40;99.90;;;;;;5066394;28;19923;-57
2022/12/15 04:16:46;;;;;;;;;;;-7.40;99.90;;;;;;5064448;28;20368;-55
2022/12/15 04:21:56;;;;;;;;;;;-7.40;99.90;;;;;;5063611;28;19966;-57
2022/12/15 05:32:47;;;;;;;;;;;-7.20;99.90;;;;;;5059774;28;20243;-54
2022/12/15 05:35:13;;;;;;;;;;;-7.20;99.90;;;;;;5059560;28;19909;-53
2022/12/15 05:37:38;;;;;;;;;;;-7.20;99.90;;;;;;5065529;28;19908;-56
2022/12/15 05:40:04;;;;;;;;;;;-7.20;99.90;;;;;;5057899;28;19909;-52
2022/12/15 05:42:29;;;;;;;;;;;-7.20;99.90;;;;;;5058276;28;20359;-54
2022/12/15 05:44:55;;;;;;;;;;;-7.30;99.90;;;;;;5063783;28;20085;-57
2022/12/15 05:47:20;;;;;;;;;;;-7.30;99.90;;;;;;5061489;28;20282;-53
2022/12/15 05:49:46;;;;;;;;;;;-7.30;99.90;;;;;;5063885;28;19922;-54
2022/12/15 05:52:11;;;;;;;;;;;-7.30;99.90;;;;;;5057627;28;19927;-57
2022/12/15 05:54:37;;;;;;;;;;;-7.30;99.90;;;;;;5066778;28;19919;-55
2022/12/15 05:57:02;;;;;;;;;;;-7.30;99.90;;;;;;5057966;28;20293;-57
2022/12/15 05:59:28;;;;;;;;;;;-7.30;99.90;;;;;;5054839;28;19913;-55
2022/12/15 06:01:53;;;;;;;;;;;-7.30;99.90;;;;;;5057539;28;20383;-53
2022/12/15 06:04:18;;;;;;;;;;;-7.30;99.90;;;;;;5061836;28;20003;-57
2022/12/15 06:06:44;;;;;;;;;;;-7.30;99.90;;;;;;5059814;28;20090;-56
2022/12/15 06:09:09;;;;;;;;;;;-7.30;99.90;;;;;;5059575;28;20371;-54
2022/12/15 06:11:36;;;;;;;;;;;-7.30;99.90;;;;;;5058463;28;19967;-57
2022/12/15 06:14:01;;;;;;;;;;;-7.30;99.90;;;;;;5061408;28;19950;-55
2022/12/15 06:16:27;;;;;;;;;;;-7.30;99.90;;;;;;5064496;28;20472;-54
2022/12/15 06:18:54;;;;;;;;;;;-7.30;99.90;;;;;;5062440;28;19917;-57
2022/12/15 06:21:22;;;;;;;;;;;-7.30;99.90;;;;;;5060467;28;19913;-53
2022/12/15 06:23:48;;;;;;;;;;;-7.30;99.90;;;;;;5061077;28;20007;-56
2022/12/15 06:26:18;;;;;;;;;;;-7.30;99.90;;;;;;5056406;28;19966;-57
2022/12/15 06:28:43;;;;;;;;;;;-7.30;99.90;;;;;;5060104;28;19999;-55
2022/12/15 06:31:10;;;;;;;;;;;-7.20;99.90;;;;;;5058414;28;19931;-56
2022/12/15 06:33:36;;;;;;;;;;;-7.30;99.90;;;;;;5059697;28;19959;-57
2022/12/15 06:36:03;;;;;;;;;;;-7.30;99.90;;;;;;5059614;28;19948;-57
2022/12/15 06:38:29;;;;;;;;;;;-7.30;99.90;;;;;;5058792;28;19958;-59
2022/12/15 06:40:55;;;;;;;;;;;-7.30;99.90;;;;;;5062568;28;20009;-58
2022/12/15 06:43:21;;;;;;;;;;;-7.30;99.90;;;;;;5058499;28;19955;-56
2022/12/15 06:45:49;;;;;;;;;;;-7.30;99.90;;;;;;5062426;28;20381;-56
2022/12/15 06:48:15;;;;;;;;;;;-7.30;99.90;;;;;;5059456;28;20314;-54
2022/12/15 06:50:40;;;;;;;;;;;-7.30;99.90;;;;;;5058944;28;19921;-57
2022/12/15 06:53:06;;;;;;;;;;;-7.30;99.90;;;;;;5062250;28;19913;-56
2022/12/15 06:55:31;;;;;;;;;;;-7.20;99.90;;;;;;5060066;28;19912;-57
2022/12/15 06:57:57;;;;;;;;;;;-7.30;99.90;;;;;;5060905;28;19961;-55
2022/12/15 07:00:23;;;;;;;;;;;-7.20;99.90;;;;;;5059796;28;19919;-56
2022/12/15 07:02:48;;;;;;;;;;;-7.30;99.90;;;;;;5060410;28;20511;-55
2022/12/15 07:05:14;;;;;;;;;;;-7.20;99.90;;;;;;5064271;28;20275;-59
2022/12/15 07:07:39;;;;;;;;;;;-7.20;99.90;;;;;;5061801;28;19928;-58
2022/12/15 07:10:05;;;;;;;;;;;-7.20;99.90;;;;;;5061125;28;20078;-56
2022/12/15 07:12:30;;;;;;;;;;;-7.20;99.90;;;;;;5063689;28;19987;-57
2022/12/15 07:14:56;;;;;;;;;;;-7.20;99.90;;;;;;5063464;28;19912;-57
2022/12/15 07:17:23;;;;;;;;;;;-7.20;99.90;;;;;;5068875;28;20374;-55
2022/12/15 07:19:48;;;;;;;;;;;-7.20;99.90;;;;;;5063850;28;20291;-57
2022/12/15 07:22:14;;;;;;;;;;;-7.10;99.90;;;;;;5068404;28;19959;-58
2022/12/15 07:24:39;;;;;;;;;;;-7.10;99.90;;;;;;5062332;28;20220;-56
2022/12/15 07:27:05;;;;;;;;;;;-7.10;99.90;;;;;;5064147;28;20353;-57
2022/12/15 07:29:31;;;;;;;;;;;-7.10;99.90;;;;;;5063783;28;19912;-58
2022/12/15 07:31:57;;;;;;;;;;;-7.00;99.90;;;;;;5063485;28;20275;-58
2022/12/15 07:34:22;;;;;;;;;;;-7.00;99.90;;;;;;5068280;28;19916;-56
2022/12/15 07:36:48;;;;;;;;;;;-7.00;99.90;;;;;;5062565;28;19917;-57
2022/12/15 07:39:14;;;;;;;;;;;-6.90;99.90;;;;;;5065966;28;20352;-56
2022/12/15 07:41:40;;;;;;;;;;;-6.90;99.90;;;;;;5065364;28;19908;-56
2022/12/15 07:44:06;;;;;;;;;;;-6.80;99.90;;;;;;5068741;28;20050;-57
2022/12/15 07:46:31;;;;;;;;;;;-6.80;99.90;;;;;;5063323;28;20285;-57
2022/12/15 07:48:57;;;;;;;;;;;-6.70;99.90;;;;;;5064297;28;19913;-58
2022/12/15 07:51:23;;;;;;;;;;;-6.60;99.90;;;;;;5063670;28;19908;-55
2022/12/15 07:53:49;;;;;;;;;;;-6.60;99.90;;;;;;5065333;28;20326;-54
2022/12/15 07:56:14;;;;;;;;;;;-6.50;99.90;;;;;;5065694;28;19912;-56
2022/12/15 07:58:40;;;;;;;;;;;-6.50;99.90;;;;;;5061818;28;20302;-56
2022/12/15 08:01:07;;;;;;;;;;;-6.40;99.90;;;;;;5063954;28;19956;-56
2022/12/15 08:03:33;;;;;;;;;;;-6.30;99.90;;;;;;5062461;28;19912;-56
2022/12/15 08:06:02;;;;;;;;;;;-6.20;99.90;;;;;;5063828;28;20374;-53
2022/12/15 08:08:27;;;;;;;;;;;-6.20;99.90;;;;;;5060011;28;19908;-57
2022/12/15 08:10:53;;;;;;;;;;;-6.10;99.90;;;;;;5054129;28;19916;-53
2022/12/15 08:13:19;;;;;;;;;;;-6.00;99.90;;;;;;5054269;28;19912;-59
2022/12/15 08:15:45;;;;;;;;;;;-6.00;99.90;;;;;;5067249;28;20004;-56
2022/12/15 08:18:10;;;;;;;;;;;-5.90;99.90;;;;;;5058087;28;19917;-56
2022/12/15 08:20:36;;;;;;;;;;;-5.80;99.90;;;;;;5065533;28;20006;-56
2022/12/15 08:23:01;;;;;;;;;;;-5.80;99.90;;;;;;5056926;28;19948;-56
2022/12/15 08:25:29;;;;;;;;;;;-5.70;99.90;;;;;;5059919;28;19913;-57
2022/12/15 08:27:55;;;;;;;;;;;-5.70;99.90;;;;;;5053669;28;20325;-57
2022/12/15 08:30:21;;;;;;;;;;;-5.60;99.90;;;;;;5059894;28;19917;-56
2022/12/15 08:32:46;;;;;;;;;;;-5.50;99.90;;;;;;5064243;28;20023;-58
2022/12/15 08:35:13;;;;;;;;;;;-5.50;99.90;;;;;;5063238;28;19913;-56
2022/12/15 08:37:38;;;;;;;;;;;-5.40;99.90;;;;;;5068539;28;19908;-55
2022/12/15 08:40:05;;;;;;;;;;;-5.40;99.90;;;;;;5054967;28;19917;-57
2022/12/15 08:42:37;;;;;;;;;;;-5.30;99.90;;;;;;5059851;28;19995;-59
2022/12/15 08:45:03;;;;;;;;;;;-5.30;99.90;;;;;;5063796;28;19909;-57
2022/12/15 08:47:29;;;;;;;;;;;-5.30;99.90;;;;;;5059583;28;19916;-58
2022/12/15 08:49:54;;;;;;;;;;;-5.30;99.90;;;;;;5065646;28;19913;-57
2022/12/15 08:52:21;;;;;;;;;;;-5.20;99.90;;;;;;5059749;28;19916;-58
2022/12/15 08:54:46;;;;;;;;;;;-5.10;99.90;;;;;;5067156;28;20235;-55
2022/12/15 08:57:12;;;;;;;;;;;-5.10;99.90;;;;;;5058516;28;19913;-58
2022/12/15 08:59:37;;;;;;;;;;;-5.00;99.90;;;;;;5061433;28;19912;-58
2022/12/15 09:02:03;;;;;;;;;;;-4.90;99.90;;;;;;5066319;22;19929;-51
2022/12/15 09:04:28;;;;;;;;;;;-4.90;99.90;;;;;;5020708;28;19963;-54
2022/12/15 09:06:54;;;;;;;;;;;-4.90;99.90;;;;;;5018272;28;19914;-54
2022/12/15 09:09:19;;;;;;;;;;;-4.80;99.90;;;;;;5017200;28;19979;-55
2022/12/15 09:11:45;;;;;;;;;;;-4.70;99.90;;;;;;5017824;28;19909;-53
2022/12/15 09:14:10;;;;;;;;;;;-4.60;99.90;;;;;;4999040;28;19964;-55
2022/12/15 09:16:35;;;;;;;;;;;-4.60;99.90;;;;;;5006561;28;20388;-55
2022/12/15 09:19:01;;;;;;;;;;;-4.40;99.90;;;;;;5002314;28;19922;-54
2022/12/15 09:21:28;;;;;;;;;;;-4.40;99.90;;;;;;5002228;28;19928;-54
2022/12/15 09:23:58;;;;;;;;;;;-4.30;99.90;;;;;;4994572;28;20388;-54
2022/12/15 09:26:24;;;;;;;;;;;-4.20;99.90;;;;;;5001466;28;19919;-56
2022/12/15 09:28:50;;;;;;;;;;;-4.10;99.90;;;;;;5006539;28;19963;-55
2022/12/15 09:31:19;;;;;;;;;;;-4.10;99.90;;;;;;5002613;28;19929;-56
2022/12/15 09:33:45;;;;;;;;;;;-4.00;99.90;;;;;;5004068;28;19909;-59
2022/12/15 09:36:11;;;;;;;;;;;-3.90;99.90;;;;;;5002356;28;20439;-56
2022/12/15 09:38:38;;;;;;;;;;;-3.80;99.90;;;;;;5003674;28;20384;-58
2022/12/15 09:41:23;;;;;;;;;;;-3.80;99.90;;;;;;5007087;28;20442;-55
2022/12/15 09:43:54;;;;;;;;;;;-3.70;99.90;;;;;;5008157;28;19917;-55
2022/12/15 09:46:27;;;;;;;;;;;-3.60;99.90;;;;;;5005397;28;20368;-58
2022/12/15 09:48:54;;;;;;;;;;;-3.60;99.90;;;;;;5008981;28;20011;-58
2022/12/15 09:51:23;;;;;;;;;;;-3.50;99.90;;;;;;5005291;28;19918;-54
2022/12/15 09:53:48;;;;;;;;;;;-3.50;99.90;;;;;;5007612;28;19924;-57
2022/12/15 09:56:18;;;;;;;;;;;-3.40;99.90;;;;;;4997305;28;19914;-55
2022/12/15 09:58:47;;;;;;;;;;;-3.40;99.90;;;;;;5007703;28;19925;-57
2022/12/15 10:01:32;;;;;;;;;;;-3.30;99.90;;;;;;5003199;28;19913;-53
2022/12/15 10:04:06;;;;;;;;;;;-3.20;99.90;;;;;;5000176;28;19949;-53
2022/12/15 10:06:33;;;;;;;;;;;-3.20;99.90;;;;;;4996210;28;20331;-53
2022/12/15 10:09:17;;;;;;;;;;;-3.20;99.90;;;;;;5009815;28;19917;-54
2022/12/15 10:11:47;;;;;;;;;;;-3.10;99.90;;;;;;4995074;28;19918;-53
2022/12/15 10:14:20;;;;;;;;;;;-3.10;99.90;;;;;;5008648;28;19909;-55
2022/12/15 10:16:57;;;;;;;;;;;-3.10;99.90;;;;;;4994150;28;19952;-54
2022/12/15 10:19:28;;;;;;;;;;;-3.00;99.90;;;;;;5001016;28;19925;-55
2022/12/15 10:21:55;;;;;;;;;;;-3.00;99.90;;;;;;4993847;28;19910;-55
2022/12/15 10:24:21;;;;;;;;;;;-3.00;99.90;;;;;;5001112;28;19914;-55
2022/12/15 10:27:07;;;;;;;;;;;-2.90;99.90;;;;;;5004413;28;20433;-52
2022/12/15 10:29:43;;;;;;;;;;;-2.90;99.90;;;;;;4980835;28;19991;-56
2022/12/15 10:32:16;;;;;;;;;;;-2.90;99.90;;;;;;4997649;28;20367;-57
2022/12/15 10:34:42;;;;;;;;;;;-2.80;99.90;;;;;;5001814;28;19917;-57
2022/12/15 10:37:12;;;;;;;;;;;-2.70;99.90;;;;;;5009065;28;20287;-56
2022/12/15 10:39:39;;;;;;;;;;;-2.70;99.90;;;;;;5009301;28;20399;-57
2022/12/15 10:42:22;;;;;;;;;;;-2.60;99.90;;;;;;5002165;28;19913;-57
2022/12/15 10:44:49;;;;;;;;;;;-2.50;99.90;;;;;;5011101;28;19916;-56
2022/12/15 10:47:19;;;;;;;;;;;-2.50;99.90;;;;;;5007093;28;20303;-56
2022/12/15 10:49:44;;;;;;;;;;;-2.40;99.90;;;;;;5011733;28;19959;-57
2022/12/15 10:52:15;;;;;;;;;;;-2.30;99.90;;;;;;5007357;28;20585;-54
2022/12/15 10:54:43;;;;;;;;;;;-2.20;99.90;;;;;;5011654;28;20018;-58
2022/12/15 10:57:19;;;;;;;;;;;-2.10;99.90;;;;;;5005584;28;19925;-57
2022/12/15 10:59:45;;;;;;;;;;;-2.00;99.90;;;;;;5013235;28;19914;-57
2022/12/15 11:02:20;;;;;;;;;;;-2.00;99.90;;;;;;5002766;28;20350;-57
2022/12/15 11:05:04;;;;;;;;;;;-2.00;99.90;;;;;;5005860;28;19913;-58
2022/12/15 11:07:34;;;;;;;;;;;-1.90;99.90;;;;;;5007018;28;19943;-58
2022/12/15 11:10:01;;;;;;;;;;;-1.90;99.90;;;;;;4988941;28;20000;-56
2022/12/15 11:15:22;;;;;;;;;;;-1.80;99.90;;;;;;5000264;28;20020;-58
2022/12/15 11:17:59;;;;;;;;;;;-1.70;99.90;;;;;;5006166;28;19914;-57
2022/12/15 11:20:31;;;;;;;;;;;-1.60;99.90;;;;;;5006270;28;19921;-58
2022/12/15 11:22:59;;;;;;;;;;;-1.60;99.90;;;;;;5005101;28;19917;-58
2022/12/15 11:25:24;;;;;;;;;;;-1.60;99.90;;;;;;5004184;28;20372;-58
2022/12/15 11:27:53;;;;;;;;;;;-1.50;99.90;;;;;;5008455;28;19921;-60
2022/12/15 11:30:21;;;;;;;;;;;-1.50;99.90;;;;;;5009862;28;19921;-58
2022/12/15 11:32:48;;;;;;;;;;;-1.50;99.90;;;;;;5010754;28;20421;-58
2022/12/15 11:35:14;;;;;;;;;;;-1.40;99.90;;;;;;5009104;28;20017;-58
2022/12/15 11:37:44;;;;;;;;;;;-1.30;99.90;;;;;;5011016;28;19921;-58
2022/12/15 11:40:29;;;;;;;;;;;-1.30;99.90;;;;;;5006405;28;19929;-58
2022/12/15 11:43:20;;;;;;;;;;;-1.30;99.90;;;;;;4997602;28;19910;-58
2022/12/15 11:46:04;;;;;;;;;;;-1.30;99.90;;;;;;5006989;28;19941;-58
2022/12/15 11:48:34;;;;;;;;;;;-1.20;99.90;;;;;;5011094;28;19916;-57
2022/12/15 11:50:59;;;;;;;;;;;-1.20;99.90;;;;;;5007411;28;19963;-58
2022/12/15 11:53:34;;;;;;;;;;;-1.10;99.90;;;;;;5010516;28;19913;-58
2022/12/15 11:56:20;;;;;;;;;;;-1.00;99.90;;;;;;5007038;28;20287;-57
2022/12/15 11:58:53;;;;;;;;;;;-0.90;99.90;;;;;;5008776;28;20279;-55
2022/12/15 12:01:42;;;;;;;;;;;-0.90;99.90;;;;;;5012661;28;19909;-59
2022/12/15 12:04:28;;;;;;;;;;;-0.90;99.90;;;;;;4992218;28;20347;-61
2022/12/15 12:06:57;;;;;;;;;;;-0.90;99.90;;;;;;4996467;28;20000;-58
2022/12/15 12:09:23;;;;;;;;;;;-0.90;99.90;;;;;;5012040;28;20129;-58
2022/12/15 12:11:52;;;;;;;;;;;-0.90;99.90;;;;;;5007368;28;19957;-58
2022/12/15 12:14:23;;;;;;;;;;;-0.80;99.90;;;;;;5011053;28;19909;-58
2022/12/15 12:17:04;;;;;;;;;;;-0.80;99.90;;;;;;5006899;28;20296;-58
2022/12/15 12:19:32;;;;;;;;;;;-0.80;99.90;;;;;;5009858;28;19913;-59
2022/12/15 12:22:01;;;;;;;;;;;-0.80;99.90;;;;;;5007015;28;20028;-58
2022/12/15 12:24:32;;;;;;;;;;;-0.70;99.90;;;;;;5008851;28;19964;-59
2022/12/15 12:26:59;;;;;;;;;;;-0.70;99.90;;;;;;4988847;28;19941;-58
2022/12/15 12:29:28;;;;;;;;;;;-0.70;99.90;;;;;;5008357;28;20013;-59
2022/12/15 12:31:56;;;;;;;;;;;-0.70;99.90;;;;;;5024783;28;19964;-58
2022/12/15 12:34:28;;;;;;;;;;;-0.70;99.90;;;;;;5007063;28;19964;-58
2022/12/15 12:36:56;;;;;;;;;;;-0.70;99.90;;;;;;5007696;28;19983;-57
2022/12/15 12:39:23;;;;;;;;;;;-0.70;99.90;;;;;;5001636;28;19914;-58
2022/12/15 12:41:51;;;;;;;;;;;-0.70;99.90;;;;;;5010072;28;19924;-56
2022/12/15 12:44:36;;;;;;;;;;;-0.70;99.90;;;;;;5007452;28;19924;-58
2022/12/15 12:47:07;;;;;;;;;;;-0.70;99.90;;;;;;5001061;28;19910;-54
2022/12/15 12:49:36;;;;;;;;;;;-0.70;99.90;;;;;;5000741;28;20012;-56
2022/12/15 12:52:02;;;;;;;;;;;-0.70;99.90;;;;;;5003786;28;19914;-58
2022/12/15 12:54:31;;;;;;;;;;;-0.70;99.90;;;;;;5019261;28;19968;-58
2022/12/15 12:56:56;;;;;;;;;;;-0.70;99.90;;;;;;5003027;28;19916;-59
2022/12/15 12:59:28;;;;;;;;;;;-0.70;99.90;;;;;;5003650;28;19914;-58
2022/12/15 13:01:54;;;;;;;;;;;-0.70;99.90;;;;;;4989503;28;19925;-57
2022/12/15 13:04:29;;;;;;;;;;;-0.70;99.90;;;;;;4999252;28;19917;-58
2022/12/15 13:06:54;;;;;;;;;;;-0.70;99.90;;;;;;4995692;28;19913;-58
2022/12/15 13:09:21;;;;;;;;;;;-0.60;99.90;;;;;;4997587;28;19913;-56
2022/12/15 13:11:47;;;;;;;;;;;-0.60;99.90;;;;;;5003206;28;20300;-59
2022/12/15 13:14:31;;;;;;;;;;;-0.60;99.90;;;;;;5007429;28;19910;-57
2022/12/15 13:17:01;;;;;;;;;;;-0.60;99.90;;;;;;5006408;28;19914;-58
2022/12/15 13:19:45;;;;;;;;;;;-0.60;99.90;;;;;;5008925;28;19914;-58
2022/12/15 13:22:25;;;;;;;;;;;-0.60;99.90;;;;;;5002540;28;19913;-57
2022/12/15 13:24:50;;;;;;;;;;;-0.50;99.90;;;;;;5006722;28;19921;-60
2022/12/15 13:27:16;;;;;;;;;;;-0.60;99.90;;;;;;5006796;28;19920;-60
2022/12/15 13:29:53;;;;;;;;;;;-0.60;99.90;;;;;;4987001;28;19918;-58
2022/12/15 13:32:35;;;;;;;;;;;-0.50;99.90;;;;;;5009082;28;20379;-59
2022/12/15 13:35:21;;;;;;;;;;;-0.50;99.90;;;;;;4996905;28;19921;-55
2022/12/15 13:37:51;;;;;;;;;;;-0.50;99.90;;;;;;5007670;28;19909;-55
2022/12/15 13:40:41;;;;;;;;;;;-0.50;99.90;;;;;;5014667;28;19963;-55
2022/12/15 13:43:30;;;;;;;;;;;-0.50;99.90;;;;;;4984182;28;20292;-59
2022/12/15 13:46:01;;;;;;;;;;;-0.50;99.90;;;;;;4990780;28;19921;-59
2022/12/15 13:48:31;;;;;;;;;;;-0.40;99.90;;;;;;4994234;28;19933;-58
2022/12/15 13:50:57;;;;;;;;;;;-0.40;99.90;;;;;;4989068;28;19917;-59
2022/12/15 13:53:24;;;;;;;;;;;-0.40;99.90;;;;;;4997681;28;20004;-59
2022/12/15 13:55:54;;;;;;;;;;;-0.40;99.90;;;;;;5003098;28;19917;-57
2022/12/15 13:58:20;;;;;;;;;;;-0.40;99.90;;;;;;5000093;28;19924;-58
2022/12/15 14:00:47;;;;;;;;;;;-0.40;99.90;;;;;;5008515;28;19910;-58
2022/12/15 14:03:13;;;;;;;;;;;-0.40;99.90;;;;;;4998538;28;20327;-59
2022/12/15 14:05:41;;;;;;;;;;;-0.40;99.90;;;;;;4998030;28;20117;-55
2022/12/15 14:08:13;;;;;;;;;;;-0.40;99.90;;;;;;5008782;28;20222;-60
2022/12/15 14:10:40;;;;;;;;;;;-0.40;99.90;;;;;;5001079;28;19917;-58
2022/12/15 14:13:26;;;;;;;;;;;-0.30;99.90;;;;;;5007572;28;19909;-57
2022/12/15 14:15:54;;;;;;;;;;;-0.30;99.90;;;;;;4997689;28;19925;-58
2022/12/15 14:18:33;;;;;;;;;;;-0.30;99.90;;;;;;4999404;28;19918;-59
2022/12/15 14:20:59;;;;;;;;;;;-0.30;99.90;;;;;;5005700;28;19964;-59
2022/12/15 14:23:27;;;;;;;;;;;-0.30;99.90;;;;;;5003274;28;19937;-59
2022/12/15 14:25:52;;;;;;;;;;;-0.30;99.90;;;;;;5000919;28;19945;-60
2022/12/15 14:28:26;;;;;;;;;;;-0.30;99.90;;;;;;5004247;28;19913;-60
2022/12/15 14:30:51;;;;;;;;;;;-0.30;99.90;;;;;;5007353;28;20008;-60
2022/12/15 14:33:17;;;;;;;;;;;-0.30;99.90;;;;;;5019327;28;20016;-59
2022/12/15 14:35:43;;;;;;;;;;;-0.30;99.90;;;;;;5002189;28;20303;-59
2022/12/15 14:38:16;;;;;;;;;;;-0.30;99.90;;;;;;5003954;28;19913;-59
2022/12/15 14:40:43;;;;;;;;;;;-0.40;99.90;;;;;;5003373;28;19996;-59
2022/12/15 14:43:16;;;;;;;;;;;-0.30;99.90;;;;;;5000941;28;20355;-59
2022/12/15 14:45:41;;;;;;;;;;;-0.30;99.90;;;;;;5004628;28;20188;-58
2022/12/15 14:48:07;;;;;;;;;;;-0.40;99.90;;;;;;4996328;28;19925;-59
2022/12/15 14:50:34;;;;;;;;;;;-0.40;99.90;;;;;;5003098;28;20473;-59
2022/12/15 14:53:01;;;;;;;;;;;-0.40;99.90;;;;;;4994365;28;20435;-58
2022/12/15 14:55:34;;;;;;;;;;;-0.40;99.90;;;;;;4985310;28;20008;-59
2022/12/15 14:58:00;;;;;;;;;;;-0.40;99.90;;;;;;4985324;28;19913;-60
2022/12/15 15:00:25;;;;;;;;;;;-0.50;99.90;;;;;;4988760;28;19941;-59
2022/12/15 15:03:09;;;;;;;;;;;-0.50;99.90;;;;;;5036237;23;20425;-57
2022/12/15 15:05:38;;;;;;;;;;;-0.60;99.90;;;;;;5026058;28;20301;-55
2022/12/15 15:08:03;;;;;;;;;;;-0.60;99.90;;;;;;5026942;28;19909;-58
2022/12/15 15:10:29;;;;;;;;;;;-0.60;99.90;;;;;;5034934;28;19920;-58
2022/12/15 15:12:55;;;;;;;;;;;-0.60;99.90;;;;;;5010598;28;19916;-58
2022/12/15 15:15:22;;;;;;;;;;;-0.60;99.90;;;;;;5031800;28;20011;-57
2022/12/15 15:17:52;;;;;;;;;;;-0.70;99.90;;;;;;5029022;28;19957;-57
2022/12/15 15:20:23;;;;;;;;;;;-0.70;99.90;;;;;;5010203;28;20328;-57
2022/12/15 15:23:06;;;;;;;;;;;-0.70;99.90;;;;;;5027946;28;20287;-58
2022/12/15 15:25:32;;;;;;;;;;;-0.70;99.90;;;;;;5026034;28;19913;-58
2022/12/15 15:28:16;;;;;;;;;;;-0.70;99.90;;;;;;5026745;28;20297;-56
2022/12/15 15:30:41;;;;;;;;;;;-0.70;99.90;;;;;;5039893;28;20414;-57
2022/12/15 15:33:07;;;;;;;;;;;-0.70;99.90;;;;;;5031606;28;19917;-56
2022/12/15 15:35:33;;;;;;;;;;;-0.70;99.90;;;;;;5039815;28;19920;-58
2022/12/15 15:38:17;;;;;;;;;;;-0.70;99.90;;;;;;5031846;28;19913;-54
2022/12/15 15:40:51;;;;;;;;;;;-0.70;99.90;;;;;;5041561;28;19913;-58
2022/12/15 15:43:17;;;;;;;;;;;-0.70;99.90;;;;;;5031570;28;19916;-57
2022/12/15 15:45:43;;;;;;;;;;;-0.70;99.90;;;;;;5011774;28;19919;-57
2022/12/15 15:48:14;;;;;;;;;;;-0.70;99.90;;;;;;5031534;28;20004;-58
2022/12/15 15:50:40;;;;;;;;;;;-0.70;99.90;;;;;;5029972;28;19917;-56
2022/12/15 15:53:08;;;;;;;;;;;-0.70;99.90;;;;;;5028403;28;19996;-57
2022/12/15 15:55:34;;;;;;;;;;;-0.70;99.90;;;;;;5036517;28;19967;-58
2022/12/15 15:58:07;;;;;;;;;;;-0.70;99.90;;;;;;5029110;28;19949;-58
2022/12/15 16:00:33;;;;;;;;;;;-0.70;99.90;;;;;;5029450;28;19913;-55
2022/12/15 16:02:58;;;;;;;;;;;-0.70;99.90;;;;;;5029964;28;19935;-57
2022/12/15 16:05:24;;;;;;;;;;;-0.60;99.90;;;;;;5035026;28;19913;-58
2022/12/15 16:07:49;;;;;;;;;;;-0.60;99.90;;;;;;5028939;28;20356;-57
2022/12/15 16:10:16;;;;;;;;;;;-0.60;99.90;;;;;;5037220;28;19924;-58
2022/12/15 16:12:47;;;;;;;;;;;-0.60;99.90;;;;;;5032324;28;19909;-59
2022/12/15 16:15:13;;;;;;;;;;;-0.60;99.90;;;;;;5031631;28;19916;-58
2022/12/15 16:17:38;;;;;;;;;;;-0.60;99.90;;;;;;5030722;28;19921;-58
2022/12/15 16:20:04;;;;;;;;;;;-0.60;99.90;;;;;;5030987;28;19913;-57
2022/12/15 16:22:30;;;;;;;;;;;-0.60;99.90;;;;;;5026620;28;19909;-55
2022/12/15 16:24:56;;;;;;;;;;;-0.50;99.90;;;;;;5023214;28;19917;-56
2022/12/15 16:27:21;;;;;;;;;;;-0.50;99.90;;;;;;5031943;28;20009;-54
2022/12/15 16:29:47;;;;;;;;;;;-0.50;99.90;;;;;;5035538;28;20382;-57
2022/12/15 16:32:12;;;;;;;;;;;-0.50;99.90;;;;;;5031973;28;19920;-57
2022/12/15 16:34:38;;;;;;;;;;;-0.50;99.90;;;;;;5033168;28;20407;-55
2022/12/15 16:37:03;;;;;;;;;;;-0.50;99.90;;;;;;5031776;28;19955;-56
2022/12/15 16:39:30;;;;;;;;;;;-0.50;99.90;;;;;;5031955;28;19996;-58
2022/12/15 16:41:56;;;;;;;;;;;-0.50;99.90;;;;;;5031333;28;19921;-57
2022/12/15 16:44:23;;;;;;;;;;;-0.50;99.90;;;;;;5034215;28;19909;-58
2022/12/15 16:46:48;;;;;;;;;;;-0.50;99.90;;;;;;5031099;28;19956;-53
2022/12/15 16:49:14;;;;;;;;;;;-0.50;99.90;;;;;;5034247;28;19928;-55